Time;durP1;ratioP1;P1;durP2;ratioP2;P2;SDS_P1;SDS_P2;PMS_P1;PMS_P2;Temp;Humidity;BMP_temperature;BMP_pressure;BME280_temperature;BME280_humidity;BME280_pressure;Samples;Min_cycle;Max_cycle;Signal;HPM_P1;HPM_P2
2023/10/09 05:40:07;;;;;;;0.95;0.77;;;;;;;;;;6218273;22;20031;-85
2023/10/09 10:26:02;;;;;;;2.97;0.88;;;;;;;;;;6217014;23;20682;-86
2023/10/09 10:28:35;;;;;;;1.48;0.65;;;;;;;;;;6215765;23;20368;-86
2023/10/09 10:31:04;;;;;;;3.55;1.05;;;;;;;;;;6242947;23;20454;-86
2023/10/09 10:36:09;;;;;;;4.70;1.17;;;;;;;;;;6210851;23;20518;-83
2023/10/09 10:39:19;;;;;;;;;;;;;;;;;;;;;
2023/10/09 14:29:44;;;;;;;2.80;0.73;;;;;;;;;;6210559;23;19927;-82
2023/10/09 14:32:13;;;;;;;2.60;0.88;;;;;;;;;;6212399;23;20424;-82
2023/10/09 14:34:42;;;;;;;3.13;1.02;;;;;;;;;;6212231;23;20352;-80
2023/10/09 14:37:12;;;;;;;4.75;1.83;;;;;;;;;;6211870;23;20013;-81
2023/10/09 14:39:41;;;;;;;9.27;1.48;;;;;;;;;;6211538;23;20084;-81
2023/10/09 14:42:10;;;;;;;1.90;0.50;;;;;;;;;;6211906;23;20518;-81
2023/10/09 14:44:40;;;;;;;3.42;0.70;;;;;;;;;;6211608;23;20054;-81
2023/10/09 14:47:06;;;;;;;4.60;0.82;;;;;;;;;;6211896;23;20010;-81
2023/10/09 14:49:36;;;;;;;5.13;0.70;;;;;;;;;;6211372;23;20009;-82
2023/10/09 14:52:03;;;;;;;8.63;1.25;;;;;;;;;;6211788;23;20016;-82
2023/10/09 14:54:29;;;;;;;3.45;0.95;;;;;;;;;;6211833;23;20393;-83
2023/10/09 14:56:55;;;;;;;4.10;1.00;;;;;;;;;;6211724;23;20004;-82
2023/10/09 14:59:25;;;;;;;3.20;0.93;;;;;;;;;;6211798;23;20012;-82
2023/10/09 15:01:53;;;;;;;7.05;2.13;;;;;;;;;;6211987;23;20004;-81
2023/10/09 15:04:20;;;;;;;0.60;0.35;;;;;;;;;;6211678;23;20435;-83
2023/10/09 15:06:49;;;;;;;5.85;1.20;;;;;;;;;;6210147;23;20355;-80
2023/10/09 15:09:22;;;;;;;4.75;0.60;;;;;;;;;;6211904;23;20083;-82
2023/10/09 15:11:48;;;;;;;2.00;0.73;;;;;;;;;;6212023;23;20001;-83
2023/10/09 15:14:15;;;;;;;4.88;1.60;;;;;;;;;;6185461;23;20310;-84
2023/10/09 15:16:42;;;;;;;14.88;1.38;;;;;;;;;;6185534;23;20012;-83
2023/10/09 15:19:10;;;;;;;2.55;0.82;;;;;;;;;;6185379;23;20019;-82
2023/10/09 15:21:42;;;;;;;5.78;0.82;;;;;;;;;;6185589;23;20009;-83
2023/10/09 15:24:09;;;;;;;4.18;0.85;;;;;;;;;;6185260;23;20020;-82
2023/10/09 15:26:35;;;;;;;5.30;0.85;;;;;;;;;;6211083;23;20004;-83
2023/10/09 15:29:03;;;;;;;3.88;1.35;;;;;;;;;;6211163;23;20025;-82
2023/10/09 15:31:31;;;;;;;5.28;1.35;;;;;;;;;;6184957;23;20439;-81
2023/10/09 15:33:57;;;;;;;4.25;0.93;;;;;;;;;;6184561;23;20103;-82
2023/10/09 15:36:28;;;;;;;3.55;1.20;;;;;;;;;;6211989;23;20005;-84
2023/10/09 15:50:49;;;;;;;3.72;1.08;;;;;;;;;;6148505;23;20023;-84
2023/10/09 15:53:36;;;;;;;12.40;1.27;;;;;;;;;;6123942;23;20013;-85
2023/10/09 15:56:02;;;;;;;1.67;0.63;;;;;;;;;;6148867;23;20032;-84
2023/10/09 15:59:05;;;;;;;5.55;0.95;;;;;;;;;;6124346;23;20033;-84
2023/10/09 16:15:35;;;;;;;8.70;1.30;;;;;;;;;;6190025;22;20029;-88
2023/10/09 16:18:06;;;;;;;3.00;0.60;;;;;;;;;;6179312;23;20028;-84
2023/10/09 16:21:08;;;;;;;8.30;1.02;;;;;;;;;;6147929;23;20041;-85
2023/10/09 16:35:44;;;;;;;4.20;1.13;;;;;;;;;;6210439;23;20352;-84
2023/10/09 16:38:56;;;;;;;3.80;1.27;;;;;;;;;;6210116;23;20026;-85
2023/10/09 16:41:25;;;;;;;10.70;1.42;;;;;;;;;;6094745;23;20034;-85
2023/10/09 16:46:48;;;;;;;2.92;1.23;;;;;;;;;;6242740;22;20525;-84
2023/10/09 16:49:27;;;;;;;2.97;1.25;;;;;;;;;;6240900;23;20008;-84
2023/10/09 16:52:11;;;;;;;5.65;1.45;;;;;;;;;;6240423;23;20495;-84
2023/10/09 16:54:39;;;;;;;7.85;1.38;;;;;;;;;;6239053;23;20016;-84
2023/10/09 16:57:22;;;;;;;3.08;0.63;;;;;;;;;;6241949;23;20007;-85
2023/10/09 16:59:58;;;;;;;4.93;0.73;;;;;;;;;;6241857;23;20008;-84
2023/10/09 17:02:42;;;;;;;2.47;0.75;;;;;;;;;;6239493;23;20050;-83
2023/10/09 17:05:12;;;;;;;4.63;1.40;;;;;;;;;;6240787;23;20495;-84
